Time;durP1;ratioP1;P1;durP2;ratioP2;P2;SDS_P1;SDS_P2;PMS_P1;PMS_P2;Temp;Humidity;BMP_temperature;BMP_pressure;BME280_temperature;BME280_humidity;BME280_pressure;Samples;Min_cycle;Max_cycle;Signal;HPM_P1;HPM_P2
2021/10/01 00:00:08;;;;;;;2.07;1.00;;;8.60;99.90;;;;;;5046493;28;20658;-68
2021/10/01 00:02:34;;;;;;;1.20;0.70;;;8.70;99.90;;;;;;5044450;28;20701;-65
2021/10/01 00:05:00;;;;;;;2.00;0.90;;;8.70;99.90;;;;;;5046796;28;20191;-69
2021/10/01 00:07:27;;;;;;;2.10;0.90;;;8.80;99.90;;;;;;5046174;28;20188;-67
2021/10/01 00:09:53;;;;;;;2.30;1.00;;;8.80;99.90;;;;;;5046364;28;20202;-68
2021/10/01 00:12:19;;;;;;;0.93;0.80;;;8.70;99.90;;;;;;5045569;28;20252;-66
2021/10/01 00:14:45;;;;;;;2.27;0.70;;;8.70;99.90;;;;;;5045496;28;20179;-67
2021/10/01 00:17:10;;;;;;;5.70;0.80;;;8.60;99.90;;;;;;5045878;28;20240;-67
2021/10/01 00:19:36;;;;;;;1.13;0.80;;;8.60;99.90;;;;;;5045448;28;20181;-65
2021/10/01 00:22:03;;;;;;;1.10;0.67;;;8.60;99.90;;;;;;5045148;28;20202;-70
2021/10/01 00:24:34;;;;;;;1.17;0.83;;;8.60;99.90;;;;;;5045655;28;20182;-68
2021/10/01 00:26:59;;;;;;;2.13;0.90;;;8.50;99.90;;;;;;5044012;28;20650;-65
2021/10/01 00:29:25;;;;;;;3.90;0.80;;;8.50;99.90;;;;;;5045338;28;20189;-68
2021/10/01 00:31:51;;;;;;;0.93;0.93;;;8.50;99.90;;;;;;5044492;28;20218;-67
2021/10/01 00:34:17;;;;;;;1.20;1.00;;;8.50;99.90;;;;;;5045601;28;20222;-64
2021/10/01 00:36:42;;;;;;;1.57;0.97;;;8.50;99.90;;;;;;5045371;28;20238;-65
2021/10/01 00:39:08;;;;;;;2.33;0.90;;;8.40;99.90;;;;;;5045506;28;20271;-67
2021/10/01 00:41:34;;;;;;;1.00;0.70;;;8.30;99.90;;;;;;5044312;28;20252;-67
2021/10/01 00:44:00;;;;;;;1.97;1.10;;;8.30;99.90;;;;;;5045267;28;20225;-69
2021/10/01 00:46:26;;;;;;;2.97;1.10;;;8.30;99.90;;;;;;5044909;28;20188;-68
2021/10/01 00:48:52;;;;;;;1.40;0.90;;;8.30;99.90;;;;;;5045227;28;20625;-67
2021/10/01 00:51:18;;;;;;;1.53;0.80;;;8.20;99.90;;;;;;5044242;28;20217;-67
2021/10/01 00:53:44;;;;;;;3.27;0.90;;;8.20;99.90;;;;;;5044919;28;20189;-68
2021/10/01 00:56:11;;;;;;;2.03;0.90;;;8.20;99.90;;;;;;5043235;28;20551;-68
2021/10/01 00:58:37;;;;;;;1.80;1.03;;;8.20;99.90;;;;;;5045332;28;20206;-67
2021/10/01 01:01:12;;;;;;;2.20;0.90;;;8.20;99.90;;;;;;5044392;28;20712;-68
2021/10/01 01:03:50;;;;;;;3.23;0.80;;;8.20;99.90;;;;;;5044500;28;20196;-65
2021/10/01 01:06:51;;;;;;;2.10;1.00;;;8.20;99.90;;;;;;5044696;28;20276;-66
2021/10/01 01:09:35;;;;;;;2.27;0.90;;;8.30;99.90;;;;;;5044773;28;20393;-67
2021/10/01 01:12:09;;;;;;;2.90;1.00;;;8.30;99.90;;;;;;5043918;28;20302;-65
2021/10/01 01:14:38;;;;;;;1.00;0.90;;;8.20;99.90;;;;;;5044429;28;20184;-69
2021/10/01 01:17:06;;;;;;;1.27;0.87;;;8.20;99.90;;;;;;5044393;28;20263;-68
2021/10/01 01:19:56;;;;;;;1.37;1.00;;;8.20;99.90;;;;;;5044748;28;20186;-67
2021/10/01 01:22:29;;;;;;;2.10;1.23;;;8.00;99.90;;;;;;5043869;28;20256;-66
2021/10/01 01:25:35;;;;;;;1.87;1.30;;;8.00;99.90;;;;;;5044391;28;20236;-69
2021/10/01 01:28:22;;;;;;;1.07;0.90;;;8.00;99.90;;;;;;5044109;28;20185;-66
2021/10/01 01:30:51;;;;;;;1.43;1.10;;;8.00;99.90;;;;;;5043390;28;20215;-66
2021/10/01 01:33:21;;;;;;;1.43;0.87;;;8.00;99.90;;;;;;5044530;28;20189;-68
2021/10/01 01:35:51;;;;;;;1.83;1.00;;;7.90;99.90;;;;;;5042695;28;20183;-66
2021/10/01 01:38:39;;;;;;;1.77;1.03;;;7.90;99.90;;;;;;5044780;28;20725;-67
2021/10/01 01:41:06;;;;;;;2.33;1.10;;;8.00;99.90;;;;;;5043836;28;20200;-68
2021/10/01 01:43:35;;;;;;;2.70;1.07;;;8.00;99.90;;;;;;5043792;28;20182;-67
2021/10/01 01:46:02;;;;;;;2.93;1.37;;;8.00;99.90;;;;;;5043680;28;20178;-65
2021/10/01 01:48:29;;;;;;;1.90;1.20;;;8.00;99.90;;;;;;5044251;28;20202;-68
2021/10/01 01:50:57;;;;;;;1.63;1.00;;;8.00;99.90;;;;;;5043603;28;20255;-67
2021/10/01 01:53:24;;;;;;;1.00;0.80;;;8.10;99.90;;;;;;5043563;28;20178;-69
2021/10/01 01:55:51;;;;;;;1.67;0.80;;;8.10;99.90;;;;;;5043455;28;20174;-68
2021/10/01 01:58:17;;;;;;;1.70;1.00;;;8.10;99.90;;;;;;5044283;28;20268;-68
2021/10/01 02:00:45;;;;;;;0.97;0.87;;;8.10;99.90;;;;;;5043173;28;20587;-66
2021/10/01 02:03:10;;;;;;;2.60;1.13;;;8.10;99.90;;;;;;5043214;28;20201;-68
2021/10/01 02:05:37;;;;;;;2.00;1.20;;;8.10;99.90;;;;;;5043972;28;20193;-68
2021/10/01 02:08:03;;;;;;;3.17;1.47;;;8.10;99.90;;;;;;5044017;28;20186;-67
2021/10/01 02:10:30;;;;;;;3.50;1.07;;;8.00;99.90;;;;;;5042937;28;20205;-69
2021/10/01 02:12:59;;;;;;;3.17;1.27;;;8.00;99.90;;;;;;5042729;28;20273;-67
2021/10/01 02:15:27;;;;;;;1.63;0.90;;;8.00;99.90;;;;;;5042322;28;20224;-67
2021/10/01 02:17:58;;;;;;;2.63;1.20;;;8.00;99.90;;;;;;5043518;28;20182;-66
2021/10/01 02:20:25;;;;;;;1.43;0.90;;;8.00;99.90;;;;;;5043414;28;20594;-67
2021/10/01 02:22:51;;;;;;;2.23;1.10;;;8.10;99.90;;;;;;5042661;28;20235;-68
2021/10/01 02:28:06;;;;;;;1.97;1.33;;;8.10;99.90;;;;;;5043872;28;20189;-66
2021/10/01 02:30:35;;;;;;;1.07;1.00;;;8.20;99.90;;;;;;5042794;28;20198;-66
2021/10/01 02:33:12;;;;;;;3.30;1.50;;;8.20;99.90;;;;;;5042863;28;21051;-67
2021/10/01 02:35:38;;;;;;;1.23;0.80;;;8.20;99.90;;;;;;5043787;28;20260;-70
2021/10/01 02:38:03;;;;;;;1.33;0.90;;;8.20;99.90;;;;;;5043608;28;20261;-68
2021/10/01 02:40:29;;;;;;;1.43;1.00;;;8.20;99.90;;;;;;5042674;28;20190;-66
2021/10/01 02:42:55;;;;;;;2.60;1.10;;;8.20;99.90;;;;;;5042400;28;20190;-70
2021/10/01 02:45:21;;;;;;;1.30;1.00;;;8.20;99.90;;;;;;5043469;28;20243;-69
2021/10/01 02:47:46;;;;;;;1.20;1.03;;;8.20;99.90;;;;;;5042078;28;20229;-68
2021/10/01 02:50:21;;;;;;;2.33;1.10;;;8.20;99.90;;;;;;5042976;28;20285;-68
2021/10/01 02:53:01;;;;;;;1.37;1.03;;;8.10;99.90;;;;;;5042479;28;20189;-66
2021/10/01 02:55:38;;;;;;;1.83;0.90;;;8.20;99.90;;;;;;5043508;28;20266;-67
2021/10/01 02:58:07;;;;;;;2.30;1.10;;;8.30;99.90;;;;;;5043990;28;20189;-67
2021/10/01 03:00:33;;;;;;;2.80;0.90;;;8.30;99.90;;;;;;5043093;28;20186;-65
2021/10/01 03:03:05;;;;;;;1.70;0.80;;;8.40;99.90;;;;;;5042699;28;20276;-66
2021/10/01 03:05:31;;;;;;;1.73;1.13;;;8.40;99.90;;;;;;5043073;28;20182;-64
2021/10/01 03:07:59;;;;;;;3.43;1.00;;;8.50;99.90;;;;;;5043245;28;20186;-67
2021/10/01 03:10:25;;;;;;;2.03;0.90;;;8.50;99.90;;;;;;5043716;28;20315;-66
2021/10/01 03:12:53;;;;;;;1.13;0.90;;;8.50;99.90;;;;;;5042403;28;20229;-67
2021/10/01 03:15:20;;;;;;;1.97;0.80;;;8.50;99.90;;;;;;5042366;28;20190;-68
2021/10/01 03:17:46;;;;;;;2.77;1.13;;;8.50;99.90;;;;;;5042899;28;20170;-68
2021/10/01 03:20:14;;;;;;;1.03;0.90;;;8.60;99.90;;;;;;5043117;28;20190;-67
2021/10/01 03:22:40;;;;;;;1.70;0.90;;;8.60;99.90;;;;;;5042426;28;20190;-67
2021/10/01 03:25:08;;;;;;;2.63;1.00;;;8.80;99.90;;;;;;5043927;28;20189;-65
2021/10/01 03:27:34;;;;;;;8.07;0.90;;;8.80;99.90;;;;;;5046419;28;20186;-69
2021/10/01 03:30:02;;;;;;;1.90;1.00;;;8.90;99.90;;;;;;5046876;28;20206;-65
2021/10/01 03:32:30;;;;;;;2.13;0.80;;;8.90;99.90;;;;;;5045693;28;20566;-68
2021/10/01 03:34:56;;;;;;;1.87;0.77;;;8.90;99.90;;;;;;5047230;28;20170;-67
2021/10/01 03:37:22;;;;;;;1.10;0.70;;;8.90;99.90;;;;;;5046367;28;20182;-68
2021/10/01 03:39:59;;;;;;;3.20;0.90;;;8.90;99.90;;;;;;5046809;28;20186;-68
2021/10/01 03:42:25;;;;;;;2.40;1.00;;;8.80;99.90;;;;;;5045508;28;20288;-67
2021/10/01 03:44:51;;;;;;;2.37;1.00;;;8.70;99.90;;;;;;5046775;28;20179;-69
2021/10/01 03:47:17;;;;;;;2.53;1.30;;;8.70;99.90;;;;;;5046001;28;20201;-67
2021/10/01 03:49:43;;;;;;;1.70;0.90;;;8.60;99.90;;;;;;5046366;28;20645;-69
2021/10/01 03:52:10;;;;;;;1.80;0.90;;;8.60;99.90;;;;;;5043949;28;20207;-65
2021/10/01 03:54:37;;;;;;;2.73;0.90;;;8.60;99.90;;;;;;5046453;28;20224;-68
2021/10/01 03:57:03;;;;;;;2.30;1.40;;;8.60;99.90;;;;;;5045960;28;20178;-69
2021/10/01 03:59:29;;;;;;;1.83;1.50;;;8.70;99.90;;;;;;5046309;28;20190;-68
2021/10/01 04:01:54;;;;;;;1.87;0.90;;;8.70;99.90;;;;;;5044986;28;20718;-68
2021/10/01 04:04:20;;;;;;;2.57;1.13;;;8.60;99.90;;;;;;5046641;28;20193;-69
2021/10/01 04:06:45;;;;;;;2.50;0.93;;;8.50;99.90;;;;;;5045468;28;20210;-68
2021/10/01 04:09:11;;;;;;;1.37;0.97;;;8.40;99.90;;;;;;5046373;28;20190;-66
2021/10/01 04:11:38;;;;;;;1.93;0.83;;;8.30;99.90;;;;;;5044462;28;20441;-66
2021/10/01 04:14:04;;;;;;;1.43;0.80;;;8.30;99.90;;;;;;5046247;28;20708;-65
2021/10/01 04:16:30;;;;;;;2.50;1.10;;;8.20;99.90;;;;;;5045307;28;20667;-65
2021/10/01 04:18:56;;;;;;;1.80;0.90;;;8.10;99.90;;;;;;5045868;28;20189;-69
2021/10/01 04:21:21;;;;;;;1.83;0.80;;;8.10;99.90;;;;;;5045385;28;20205;-67
2021/10/01 04:23:47;;;;;;;0.80;0.80;;;8.00;99.90;;;;;;5045494;28;20690;-67
2021/10/01 04:26:13;;;;;;;1.03;0.73;;;8.10;99.90;;;;;;5045865;28;20193;-68
2021/10/01 04:28:39;;;;;;;2.20;1.00;;;8.00;99.90;;;;;;5045317;28;20197;-66
2021/10/01 04:31:04;;;;;;;2.03;1.00;;;8.10;99.90;;;;;;5045410;28;20217;-67
2021/10/01 04:33:34;;;;;;;6.70;1.20;;;8.10;99.90;;;;;;5044753;28;20186;-66
2021/10/01 04:36:00;;;;;;;2.73;0.70;;;8.10;99.90;;;;;;5045016;28;20526;-65
2021/10/01 04:38:26;;;;;;;3.17;0.70;;;8.10;99.90;;;;;;5045499;28;20178;-69
2021/10/01 04:40:52;;;;;;;1.17;0.53;;;8.10;99.90;;;;;;5045101;28;20205;-65
2021/10/01 04:43:18;;;;;;;1.20;0.87;;;8.10;99.90;;;;;;5044589;28;20254;-67
2021/10/01 04:45:44;;;;;;;1.47;0.80;;;8.20;99.90;;;;;;5045299;28;20698;-69
2021/10/01 04:48:09;;;;;;;2.73;0.60;;;8.30;99.90;;;;;;5043676;28;20216;-68
2021/10/01 04:50:35;;;;;;;2.30;1.23;;;8.20;99.90;;;;;;5043610;28;20726;-68
2021/10/01 04:53:02;;;;;;;3.47;0.80;;;8.20;99.90;;;;;;5044207;28;20186;-69
2021/10/01 04:55:28;;;;;;;1.73;0.90;;;8.20;99.90;;;;;;5045092;28;20254;-68
2021/10/01 04:57:54;;;;;;;0.97;0.77;;;8.10;99.90;;;;;;5044569;28;20187;-67
2021/10/01 05:00:20;;;;;;;0.70;0.70;;;8.10;99.90;;;;;;5043838;28;20347;-68
2021/10/01 05:02:46;;;;;;;2.30;0.93;;;8.00;99.90;;;;;;5044295;28;20358;-66
2021/10/01 05:05:12;;;;;;;2.07;0.70;;;8.00;99.90;;;;;;5044914;28;20280;-69
2021/10/01 05:07:37;;;;;;;2.10;0.80;;;7.90;99.90;;;;;;5044642;28;20331;-67
2021/10/01 05:10:06;;;;;;;0.80;0.70;;;7.90;99.90;;;;;;5044727;28;20202;-68
2021/10/01 05:12:32;;;;;;;1.67;1.07;;;8.00;99.90;;;;;;5043462;28;20255;-66
2021/10/01 05:14:58;;;;;;;1.70;1.10;;;7.90;99.90;;;;;;5045068;28;20186;-68
2021/10/01 05:17:23;;;;;;;1.97;0.73;;;7.90;99.90;;;;;;5044193;28;21068;-65
2021/10/01 05:19:50;;;;;;;1.90;0.70;;;7.90;99.90;;;;;;5044867;28;20688;-67
2021/10/01 05:22:17;;;;;;;5.43;1.07;;;7.90;99.90;;;;;;5043442;28;20237;-69
2021/10/01 05:24:42;;;;;;;2.10;0.80;;;7.90;99.90;;;;;;5044842;28;20190;-66
2021/10/01 05:27:08;;;;;;;0.63;0.53;;;7.90;99.90;;;;;;5042719;28;20196;-69
2021/10/01 05:29:34;;;;;;;2.13;0.80;;;7.90;99.90;;;;;;5044604;28;20193;-66
2021/10/01 05:32:00;;;;;;;1.23;0.80;;;7.80;99.90;;;;;;5043301;28;20278;-69
2021/10/01 05:34:26;;;;;;;2.23;0.70;;;7.90;99.90;;;;;;5042841;28;20182;-67
2021/10/01 05:36:51;;;;;;;2.83;0.70;;;7.90;99.90;;;;;;5042748;28;20205;-66
2021/10/01 05:39:17;;;;;;;4.17;1.00;;;7.90;99.90;;;;;;5044765;28;20278;-65
2021/10/01 05:41:43;;;;;;;2.97;1.00;;;7.90;99.90;;;;;;5043632;28;20217;-69
2021/10/01 05:44:09;;;;;;;1.13;0.83;;;8.00;99.90;;;;;;5044307;28;20534;-66
2021/10/01 05:46:39;;;;;;;1.43;0.70;;;8.10;99.90;;;;;;5043598;28;20305;-70
2021/10/01 05:49:05;;;;;;;2.53;0.60;;;8.20;99.90;;;;;;5043608;28;20194;-68
2021/10/01 05:51:31;;;;;;;0.60;0.60;;;8.30;99.90;;;;;;5043017;28;20220;-66
2021/10/01 05:56:32;;;;;;;2.10;0.70;;;8.50;99.90;;;;;;5044358;28;20188;-65
2021/10/01 05:58:57;;;;;;;2.43;0.73;;;8.50;99.90;;;;;;5044403;28;20182;-66
2021/10/01 06:01:23;;;;;;;3.37;1.10;;;8.60;99.90;;;;;;5043890;28;20202;-69
2021/10/01 06:03:51;;;;;;;2.83;0.63;;;8.60;99.90;;;;;;5044026;28;20186;-69
2021/10/01 06:06:16;;;;;;;1.27;0.60;;;8.70;99.90;;;;;;5034924;28;20193;-69
2021/10/01 06:08:42;;;;;;;2.70;0.80;;;8.80;99.90;;;;;;5043047;28;20182;-67
2021/10/01 06:11:08;;;;;;;1.10;0.90;;;8.90;99.90;;;;;;5041784;28;20767;-68
2021/10/01 06:13:36;;;;;;;0.70;0.70;;;9.00;99.90;;;;;;5043071;28;20342;-68
2021/10/01 06:16:02;;;;;;;1.67;0.83;;;9.10;99.90;;;;;;5044154;28;20183;-66
2021/10/01 06:18:27;;;;;;;0.80;0.60;;;9.10;99.90;;;;;;5043758;28;20556;-66
2021/10/01 06:20:53;;;;;;;2.10;0.70;;;9.10;99.90;;;;;;5041450;28;20804;-67
2021/10/01 06:23:21;;;;;;;1.93;0.80;;;9.20;99.90;;;;;;5041039;28;20198;-68
2021/10/01 06:25:47;;;;;;;1.27;0.90;;;9.20;99.90;;;;;;5042613;28;20194;-66
2021/10/01 06:28:13;;;;;;;2.90;0.87;;;9.30;99.90;;;;;;5040187;28;20190;-69
2021/10/01 06:30:39;;;;;;;5.40;1.00;;;9.40;99.90;;;;;;5043184;28;20669;-70
2021/10/01 06:33:06;;;;;;;1.83;0.80;;;9.50;99.90;;;;;;5043038;28;20174;-69
2021/10/01 06:35:31;;;;;;;1.57;0.77;;;9.50;99.90;;;;;;5043497;28;20278;-68
2021/10/01 06:37:57;;;;;;;1.03;0.73;;;9.60;99.90;;;;;;5041848;28;20182;-66
2021/10/01 06:40:24;;;;;;;1.43;0.60;;;9.70;99.90;;;;;;5042323;28;20605;-68
2021/10/01 06:42:51;;;;;;;1.50;0.73;;;9.70;99.90;;;;;;5043068;28;20193;-67
2021/10/01 06:45:22;;;;;;;2.30;0.93;;;9.80;99.90;;;;;;5043515;28;20243;-67
2021/10/01 07:20:48;;;;;;;1.23;0.60;;;9.90;99.90;;;;;;5042886;28;20692;-66
2021/10/01 08:20:49;;;;;;;1.52;0.60;;;13.90;99.90;;;;;;5045530;28;20201;-68
2021/10/01 08:23:16;;;;;;;2.70;0.50;;;14.00;99.90;;;;;;5045435;28;20593;-68
2021/10/01 08:25:41;;;;;;;1.27;0.60;;;14.20;99.90;;;;;;5045950;28;20182;-69
2021/10/01 08:28:07;;;;;;;1.15;0.50;;;14.20;99.90;;;;;;5045931;28;20191;-67
2021/10/01 08:30:34;;;;;;;2.92;1.00;;;14.30;99.90;;;;;;5045628;28;20198;-68
2021/10/01 08:33:00;;;;;;;1.77;0.82;;;14.20;99.90;;;;;;5044826;28;20704;-68
2021/10/01 08:35:26;;;;;;;1.08;0.47;;;14.20;99.90;;;;;;5045979;28;20690;-67
2021/10/01 08:37:56;;;;;;;0.43;0.40;;;14.40;99.90;;;;;;5045150;28;20402;-69
2021/10/01 08:40:25;;;;;;;2.33;0.60;;;14.50;99.90;;;;;;5045408;28;20190;-66
2021/10/01 08:42:53;;;;;;;1.65;0.40;;;14.50;99.90;;;;;;5039214;28;20183;-66
2021/10/01 08:45:21;;;;;;;1.27;0.80;;;14.70;99.90;;;;;;5042171;28;20235;-68
2021/10/01 08:47:47;;;;;;;1.00;0.50;;;14.70;99.90;;;;;;5042411;28;20286;-66
2021/10/01 08:50:16;;;;;;;2.65;0.50;;;14.60;99.90;;;;;;5043951;28;20327;-68
2021/10/01 08:52:42;;;;;;;2.15;0.75;;;14.70;99.90;;;;;;5043001;28;20224;-65
2021/10/01 08:55:09;;;;;;;0.82;0.45;;;14.70;99.90;;;;;;5044381;28;20724;-68
2021/10/01 08:57:35;;;;;;;1.33;0.60;;;14.80;99.90;;;;;;5042743;28;20230;-69
2021/10/01 09:00:03;;;;;;;2.42;0.50;;;14.90;99.90;;;;;;5040534;28;20183;-69
2021/10/01 09:02:29;;;;;;;1.15;0.68;;;15.00;99.90;;;;;;5038495;28;20198;-68
2021/10/01 09:04:55;;;;;;;2.95;0.68;;;15.00;99.90;;;;;;5041036;28;20175;-68
2021/10/01 09:07:25;;;;;;;1.27;0.60;;;15.10;99.90;;;;;;5042974;28;20783;-68
2021/10/01 09:09:53;;;;;;;1.17;0.50;;;15.20;99.90;;;;;;5043616;28;20285;-68
2021/10/01 09:12:20;;;;;;;1.98;0.65;;;15.20;99.90;;;;;;5056396;23;20242;-78
2021/10/01 09:14:56;;;;;;;1.70;0.40;;;15.40;99.90;;;;;;5016156;28;20711;-78
2021/10/01 09:17:24;;;;;;;1.42;0.57;;;15.60;99.90;;;;;;5025799;28;20531;-76
2021/10/01 09:19:51;;;;;;;0.82;0.30;;;15.90;99.90;;;;;;5017805;28;20722;-77
2021/10/01 09:22:23;;;;;;;1.13;0.35;;;16.10;99.90;;;;;;5015345;28;20195;-78
2021/10/01 09:24:48;;;;;;;1.10;0.40;;;16.20;99.90;;;;;;5016999;28;20290;-78
2021/10/01 09:27:14;;;;;;;2.22;0.60;;;16.20;99.90;;;;;;5015911;28;20282;-76
2021/10/01 09:29:39;;;;;;;0.93;0.50;;;16.30;99.90;;;;;;5016969;28;20190;-76
2021/10/01 09:32:14;;;;;;;1.88;0.50;;;16.50;99.90;;;;;;5016865;28;20211;-77
2021/10/01 09:34:42;;;;;;;0.90;0.55;;;16.60;99.90;;;;;;5020038;28;20317;-75
2021/10/01 09:37:11;;;;;;;2.05;0.55;;;16.60;99.90;;;;;;5019169;28;20533;-78
2021/10/01 09:39:51;;;;;;;1.30;0.60;;;16.50;99.90;;;;;;5016874;28;20266;-77
2021/10/01 09:42:19;;;;;;;1.00;0.50;;;16.50;99.90;;;;;;5018673;28;20240;-78
2021/10/01 09:44:49;;;;;;;0.77;0.50;;;16.70;99.90;;;;;;5019602;28;20203;-78
2021/10/01 09:47:17;;;;;;;3.78;0.52;;;16.80;99.90;;;;;;5019037;28;20265;-77
2021/10/01 09:49:43;;;;;;;1.08;0.50;;;17.00;99.90;;;;;;5017797;28;20251;-78
2021/10/01 09:52:11;;;;;;;0.55;0.40;;;17.10;99.90;;;;;;5018827;28;20735;-78
2021/10/01 09:54:38;;;;;;;1.55;0.60;;;17.20;99.90;;;;;;5032603;28;20262;-78
2021/10/01 09:57:07;;;;;;;1.08;0.47;;;17.20;99.90;;;;;;5017420;28;20203;-78
2021/10/01 09:59:35;;;;;;;2.60;0.82;;;17.20;99.90;;;;;;5016715;28;20187;-79
2021/10/01 10:02:04;;;;;;;4.45;1.27;;;17.10;99.90;;;;;;5016467;28;20179;-79
2021/10/01 10:04:35;;;;;;;1.92;0.75;;;17.00;99.90;;;;;;5011933;28;20213;-78
2021/10/01 10:07:33;;;;;;;2.55;0.50;;;17.10;99.90;;;;;;5014131;28;20258;-78
2021/10/01 10:10:09;;;;;;;1.75;0.90;;;17.10;99.90;;;;;;5021418;28;20206;-79
2021/10/01 10:12:41;;;;;;;0.70;0.45;;;17.20;99.90;;;;;;5006404;28;20203;-78
2021/10/01 10:15:15;;;;;;;1.98;0.93;;;17.40;99.90;;;;;;5005679;28;20641;-79
2021/10/01 10:17:49;;;;;;;3.55;0.70;;;17.40;99.90;;;;;;5006783;28;20967;-79
2021/10/01 10:20:17;;;;;;;2.97;0.50;;;17.50;99.90;;;;;;5011623;28;20247;-78
2021/10/01 10:22:43;;;;;;;1.60;0.43;;;17.60;99.90;;;;;;5006914;28;20200;-79
2021/10/01 10:25:09;;;;;;;1.77;0.50;;;17.70;99.90;;;;;;5013358;28;20207;-78
2021/10/01 10:27:34;;;;;;;0.75;0.47;;;17.90;99.90;;;;;;5011221;28;20185;-78
2021/10/01 10:30:02;;;;;;;2.05;0.50;;;18.30;99.90;;;;;;5004559;28;20206;-78
2021/10/01 10:32:30;;;;;;;0.93;0.40;;;18.40;99.90;;;;;;5007233;28;20228;-78
2021/10/01 10:34:59;;;;;;;8.65;1.95;;;18.50;99.90;;;;;;5010016;28;20206;-77
2021/10/01 10:37:54;;;;;;;1.92;0.38;;;18.90;99.90;;;;;;5014316;28;20230;-77
2021/10/01 10:40:20;;;;;;;3.00;0.50;;;19.10;99.90;;;;;;4998781;28;21258;-79
2021/10/01 10:42:48;;;;;;;1.95;0.40;;;19.30;99.90;;;;;;5015877;28;20191;-78
2021/10/01 10:45:22;;;;;;;0.40;0.30;;;19.40;99.90;;;;;;5012022;28;20249;-79
2021/10/01 10:47:52;;;;;;;1.42;0.47;;;19.40;99.90;;;;;;5014255;28;20409;-79
2021/10/01 10:50:36;;;;;;;1.13;0.50;;;19.70;98.50;;;;;;5014117;28;20282;-79
2021/10/01 11:31:06;;;;;;;0.75;0.43;;;18.90;76.50;;;;;;5784148;23;20239;-69
2021/10/01 11:33:32;;;;;;;1.65;0.47;;;19.10;70.80;;;;;;4974612;28;20530;-69
2021/10/01 11:35:57;;;;;;;2.50;0.47;;;19.30;70.40;;;;;;4975680;28;20645;-70
2021/10/01 11:38:28;;;;;;;0.77;0.43;;;19.50;70.40;;;;;;4974480;28;20184;-70
2021/10/01 11:41:27;;;;;;;1.05;0.30;;;19.70;70.30;;;;;;4976845;28;20196;-67
2021/10/01 11:43:55;;;;;;;0.55;0.30;;;19.80;67.60;;;;;;4954822;28;20619;-69
2021/10/01 11:46:37;;;;;;;0.60;0.30;;;19.80;67.40;;;;;;4978360;28;20193;-72
2021/10/01 11:49:07;;;;;;;0.63;0.30;;;19.70;64.90;;;;;;4972991;28;20180;-71
2021/10/01 11:51:34;;;;;;;1.52;0.30;;;19.70;67.70;;;;;;4971767;28;20223;-68
2021/10/01 11:54:12;;;;;;;1.58;0.30;;;19.70;66.60;;;;;;4976393;28;20184;-71
2021/10/01 11:57:08;;;;;;;3.50;0.40;;;19.80;66.50;;;;;;4974102;28;20400;-68
2021/10/01 12:00:24;;;;;;;1.13;0.55;;;19.70;65.10;;;;;;4974008;28;20189;-68
2021/10/01 12:02:52;;;;;;;3.03;0.68;;;19.60;64.10;;;;;;4973933;28;21063;-69
2021/10/01 12:05:31;;;;;;;0.63;0.30;;;19.50;67.00;;;;;;4979016;28;20264;-68
2021/10/01 12:07:58;;;;;;;1.77;0.45;;;19.60;69.00;;;;;;4977174;28;20606;-69
2021/10/01 12:10:27;;;;;;;1.20;0.43;;;19.70;68.10;;;;;;4979348;28;20207;-67
2021/10/01 12:12:59;;;;;;;0.50;0.30;;;19.80;66.30;;;;;;4975652;28;20180;-68
2021/10/01 12:15:43;;;;;;;0.40;0.40;;;19.90;67.40;;;;;;4979112;28;20196;-69
2021/10/01 12:18:30;;;;;;;1.85;0.40;;;20.10;66.10;;;;;;4982589;28;20254;-69
2021/10/01 12:20:57;;;;;;;1.27;0.32;;;20.10;66.50;;;;;;4985349;28;20267;-70
2021/10/01 12:23:27;;;;;;;0.57;0.20;;;20.10;65.50;;;;;;4982230;28;20299;-68
2021/10/01 12:25:54;;;;;;;0.55;0.40;;;20.10;66.60;;;;;;4977329;28;20180;-70
2021/10/01 12:28:21;;;;;;;0.40;0.40;;;20.10;64.40;;;;;;4975693;28;20825;-69
2021/10/01 12:31:07;;;;;;;0.40;0.40;;;20.10;65.70;;;;;;4980253;28;20220;-67
2021/10/01 12:33:34;;;;;;;0.45;0.20;;;20.10;64.40;;;;;;4979997;28;20184;-69
2021/10/01 12:36:00;;;;;;;0.52;0.32;;;20.10;65.20;;;;;;4976629;28;20195;-70
2021/10/01 12:38:26;;;;;;;0.47;0.28;;;20.10;66.40;;;;;;4974499;28;20629;-68
2021/10/01 12:41:15;;;;;;;0.55;0.45;;;20.10;63.90;;;;;;4974769;28;20259;-69
2021/10/01 12:43:47;;;;;;;1.13;0.40;;;20.20;63.90;;;;;;4974977;28;20280;-68
2021/10/01 12:46:31;;;;;;;0.93;0.38;;;20.10;63.80;;;;;;4977636;28;20707;-69
2021/10/01 12:49:23;;;;;;;0.85;0.35;;;20.10;61.60;;;;;;4974851;28;20189;-66
2021/10/01 12:52:12;;;;;;;0.52;0.40;;;20.10;62.80;;;;;;4978240;28;20219;-67
2021/10/01 12:54:44;;;;;;;1.67;0.38;;;20.10;64.10;;;;;;4972198;28;20189;-68
2021/10/01 12:57:34;;;;;;;1.48;0.40;;;20.10;63.80;;;;;;4966318;28;20174;-67
2021/10/01 13:00:18;;;;;;;0.47;0.30;;;20.20;65.80;;;;;;4971654;28;20705;-69
2021/10/01 13:03:13;;;;;;;1.10;0.30;;;19.90;64.00;;;;;;4968328;28;20378;-68
2021/10/01 13:05:41;;;;;;;1.00;0.22;;;19.90;65.60;;;;;;4962651;28;20333;-70
2021/10/01 13:08:08;;;;;;;1.73;0.35;;;19.80;66.10;;;;;;4976326;28;20582;-67
2021/10/01 13:10:57;;;;;;;0.98;0.52;;;19.90;64.00;;;;;;4968460;28;20227;-72
2021/10/01 13:13:27;;;;;;;0.85;0.40;;;19.90;64.50;;;;;;4972218;28;20184;-71
2021/10/01 13:15:58;;;;;;;1.48;0.40;;;20.00;64.90;;;;;;4981214;28;20184;-69
2021/10/01 13:18:32;;;;;;;0.80;0.47;;;20.10;66.00;;;;;;4968905;28;20181;-69
2021/10/01 13:21:09;;;;;;;0.85;0.30;;;20.10;67.20;;;;;;4966476;28;20636;-68
2021/10/01 13:23:45;;;;;;;0.40;0.40;;;20.20;65.30;;;;;;4967372;28;20545;-67
2021/10/01 13:26:21;;;;;;;1.67;0.30;;;20.10;64.20;;;;;;4966397;28;20751;-68
2021/10/01 13:28:51;;;;;;;1.25;0.43;;;20.10;66.10;;;;;;4968211;28;20188;-71
2021/10/01 13:31:18;;;;;;;0.65;0.50;;;20.20;65.40;;;;;;4967505;28;20712;-68
2021/10/01 13:33:44;;;;;;;2.25;0.50;;;20.20;65.70;;;;;;4971184;28;20191;-69
2021/10/01 13:36:12;;;;;;;1.35;0.32;;;20.20;64.80;;;;;;4972773;28;20185;-68
2021/10/01 13:38:40;;;;;;;0.30;0.30;;;20.20;65.90;;;;;;4965592;28;20220;-66
2021/10/01 13:41:07;;;;;;;1.45;0.45;;;20.10;65.70;;;;;;4966278;28;20263;-69
2021/10/01 13:43:34;;;;;;;0.55;0.38;;;20.00;66.60;;;;;;4965394;28;20488;-67
2021/10/01 13:46:01;;;;;;;1.65;0.38;;;20.10;66.60;;;;;;4970555;28;20706;-71
2021/10/01 13:48:27;;;;;;;1.15;0.40;;;20.10;65.70;;;;;;4970875;28;20244;-68
2021/10/01 13:50:54;;;;;;;0.70;0.50;;;20.20;64.50;;;;;;4966342;28;20231;-69
2021/10/01 13:53:20;;;;;;;0.50;0.30;;;20.10;62.20;;;;;;4967128;28;20172;-68
2021/10/01 13:55:46;;;;;;;0.90;0.40;;;20.00;63.60;;;;;;4970779;28;20189;-68
2021/10/01 13:58:12;;;;;;;2.88;0.40;;;20.00;65.20;;;;;;4973674;28;20696;-68
2021/10/01 14:00:38;;;;;;;1.00;0.40;;;20.00;64.30;;;;;;4971865;28;20209;-69
2021/10/01 14:03:04;;;;;;;0.70;0.30;;;20.10;64.00;;;;;;4965354;28;20238;-71
2021/10/01 14:05:29;;;;;;;1.40;0.47;;;20.10;64.30;;;;;;4975119;28;20197;-71
2021/10/01 14:07:55;;;;;;;1.25;0.40;;;20.20;64.10;;;;;;4969408;28;20181;-67
2021/10/01 14:10:26;;;;;;;0.90;0.60;;;20.20;64.60;;;;;;4965025;28;20184;-69
2021/10/01 14:12:53;;;;;;;1.20;0.40;;;20.20;70.50;;;;;;4976203;28;20173;-68
2021/10/01 14:15:20;;;;;;;1.48;0.50;;;20.10;72.60;;;;;;4967845;28;20722;-68
2021/10/01 14:17:46;;;;;;;0.70;0.40;;;20.00;74.70;;;;;;4965301;28;20277;-67
2021/10/01 14:20:15;;;;;;;0.50;0.50;;;19.80;75.30;;;;;;4965429;28;20267;-66
2021/10/01 14:22:41;;;;;;;0.52;0.50;;;19.70;75.80;;;;;;4964314;28;20224;-68
2021/10/01 14:25:08;;;;;;;2.63;0.68;;;19.80;76.60;;;;;;4964621;28;20236;-67
2021/10/01 14:27:36;;;;;;;1.75;0.47;;;19.60;76.60;;;;;;4964776;28;20181;-68
2021/10/01 14:30:03;;;;;;;0.90;0.43;;;19.60;77.10;;;;;;4965172;28;20180;-69
2021/10/01 14:32:29;;;;;;;0.52;0.40;;;19.60;78.60;;;;;;4966825;28;20331;-69
2021/10/01 14:34:56;;;;;;;1.05;0.75;;;19.60;78.70;;;;;;4969122;28;20514;-68
2021/10/01 14:37:22;;;;;;;0.98;0.47;;;19.60;79.80;;;;;;4965798;28;20180;-71
2021/10/01 14:39:48;;;;;;;3.47;0.50;;;19.60;80.10;;;;;;4965254;28;20187;-69
2021/10/01 14:42:13;;;;;;;2.03;0.50;;;19.60;81.60;;;;;;4964464;28;20284;-67
2021/10/01 14:44:39;;;;;;;1.48;0.50;;;19.60;81.90;;;;;;4976099;28;20176;-69
2021/10/01 14:47:04;;;;;;;1.00;0.40;;;19.70;82.60;;;;;;4965904;28;20231;-68
2021/10/01 14:49:30;;;;;;;2.90;0.70;;;19.60;83.00;;;;;;4965173;28;20196;-70
2021/10/01 14:51:56;;;;;;;1.63;0.50;;;19.60;85.00;;;;;;4973210;28;20604;-67
2021/10/01 14:54:21;;;;;;;2.22;0.60;;;19.50;84.90;;;;;;4967404;28;20185;-67
2021/10/01 14:56:47;;;;;;;0.52;0.40;;;19.40;85.60;;;;;;4965005;28;20199;-69
2021/10/01 14:59:13;;;;;;;1.58;0.40;;;19.30;87.10;;;;;;4965426;28;20185;-70
2021/10/01 15:01:39;;;;;;;1.17;0.50;;;19.30;86.70;;;;;;4970487;28;20264;-70
2021/10/01 15:04:05;;;;;;;1.88;0.50;;;19.20;86.30;;;;;;4976489;28;20185;-68
2021/10/01 15:06:30;;;;;;;0.80;0.40;;;19.10;86.00;;;;;;4967434;28;20185;-67
2021/10/01 15:08:56;;;;;;;0.73;0.60;;;19.10;86.70;;;;;;4968568;28;20459;-66
2021/10/01 15:11:21;;;;;;;0.95;0.40;;;18.90;87.00;;;;;;4967959;28;20224;-69
2021/10/01 15:13:48;;;;;;;3.63;0.50;;;18.80;87.80;;;;;;4965662;28;20181;-68
2021/10/01 15:16:14;;;;;;;1.58;0.50;;;18.70;88.90;;;;;;4965964;28;20216;-69